<?xml version="1.0" encoding="UTF-8" standalone="no" ?>
<gpx xmlns="http://www.topografix.com/GPX/1/1" xmlns:xsi="http://www.w3.org/2001/XMLSchema-instance" xsi:schemaLocation="http://www.topografix.com/GPX/1/1 http://www.topografix.com/GPX/1/1/gpx.xsd" version="1.1" creator="VisuGPX - https://www.visugpx.com">
  <metadata>
    <name>GR441 Kevin</name>
  </metadata>
  <wpt lat="45.86793" lon="2.95388">
    <ele>900.5</ele>
    <name><![CDATA[Bivy 1]]></name>
    <type><![CDATA[camping]]></type>
  </wpt>
  <wpt lat="45.77933" lon="2.86085">
    <ele>758</ele>
    <name><![CDATA[Bivy 2]]></name>
    <desc><![CDATA[Bivouac 2]]></desc>
    <type><![CDATA[camping]]></type>
  </wpt>
  <wpt lat="45.64793" lon="2.85852">
    <ele>1207.1</ele>
    <name><![CDATA[Bivy 3]]></name>
    <type><![CDATA[camping]]></type>
  </wpt>
  <wpt lat="45.71022" lon="2.94378">
    <ele>1043.6</ele>
    <name><![CDATA[Bivy 4]]></name>
    <type><![CDATA[camping]]></type>
  </wpt>
  <wpt lat="45.7932" lon="2.9464">
    <ele>1028.1</ele>
    <name><![CDATA[Bivy 5]]></name>
    <type><![CDATA[camping]]></type>
  </wpt>
  <wpt lat="45.86932" lon="2.98248">
    <ele>807</ele>
    <name><![CDATA[Bivy 6a]]></name>
    <type><![CDATA[camping]]></type>
  </wpt>
  <wpt lat="45.88162" lon="3.03012">
    <ele>659.4</ele>
    <name><![CDATA[Bivy 6b]]></name>
    <type><![CDATA[camping]]></type>
  </wpt>
  <wpt lat="45.90557" lon="2.99635">
    <ele>720.2</ele>
    <name><![CDATA[Départ / Arrivée1]]></name>
    <type><![CDATA[user]]></type>
  </wpt>
  <trk>
    <name><![CDATA[J1]]></name>
    <extensions>
      <line xmlns="http://www.topografix.com/GPX/gpx_style/0/2">
        <color>0000FF</color>
        <width>4</width>
      </line>
    </extensions>
    <trkseg>
      <trkpt lat="45.90557" lon="2.99636">
        <ele>726.897798</ele>
        <time>2022-03-05T16:43:38Z</time>
      </trkpt>
      <trkpt lat="45.9056" lon="2.99612">
        <ele>726.743629</ele>
        <time>2022-03-05T16:43:55Z</time>
      </trkpt>
      <trkpt lat="45.90551" lon="2.99517">
        <ele>726.876787</ele>
        <time>2022-03-05T16:45:03Z</time>
      </trkpt>
      <trkpt lat="45.90548" lon="2.9951">
        <ele>727.090348</ele>
        <time>2022-03-05T16:45:08Z</time>
      </trkpt>
      <trkpt lat="45.90506" lon="2.99443">
        <ele>729.603945</ele>
        <time>2022-03-05T16:46:17Z</time>
      </trkpt>
      <trkpt lat="45.90497" lon="2.99419">
        <ele>730.366764</ele>
        <time>2022-03-05T16:46:40Z</time>
      </trkpt>
      <trkpt lat="45.90464" lon="2.99381">
        <ele>732.036624</ele>
        <time>2022-03-05T16:47:30Z</time>
      </trkpt>
      <trkpt lat="45.90432" lon="2.99328">
        <ele>734.363048</ele>
        <time>2022-03-05T16:48:30Z</time>
      </trkpt>
      <trkpt lat="45.9035" lon="2.99081">
        <ele>746.985885</ele>
        <time>2022-03-05T16:52:24Z</time>
      </trkpt>
      <trkpt lat="45.90316" lon="2.99015">
        <ele>750.574351</ele>
        <time>2022-03-05T16:53:35Z</time>
      </trkpt>
      <trkpt lat="45.90293" lon="2.98953">
        <ele>753.591125</ele>
        <time>2022-03-05T16:54:34Z</time>
      </trkpt>
      <trkpt lat="45.90285" lon="2.98926">
        <ele>754.848313</ele>
        <time>2022-03-05T16:54:59Z</time>
      </trkpt>
      <trkpt lat="45.90265" lon="2.98788">
        <ele>759.453305</ele>
        <time>2022-03-05T16:56:56Z</time>
      </trkpt>
      <trkpt lat="45.90234" lon="2.98703">
        <ele>762.149614</ele>
        <time>2022-03-05T16:58:11Z</time>
      </trkpt>
      <trkpt lat="45.90236" lon="2.9869">
        <ele>762.512792</ele>
        <time>2022-03-05T16:58:21Z</time>
      </trkpt>
      <trkpt lat="45.90239" lon="2.98662">
        <ele>763.328911</ele>
        <time>2022-03-05T16:58:42Z</time>
      </trkpt>
      <trkpt lat="45.9027" lon="2.98583">
        <ele>765.066115</ele>
        <time>2022-03-05T16:59:51Z</time>
      </trkpt>
      <trkpt lat="45.90296" lon="2.98554">
        <ele>765.837302</ele>
        <time>2022-03-05T17:00:26Z</time>
      </trkpt>
      <trkpt lat="45.90323" lon="2.98545">
        <ele>766.48821</ele>
        <time>2022-03-05T17:00:55Z</time>
      </trkpt>
      <trkpt lat="45.90331" lon="2.98521">
        <ele>766.910904</ele>
        <time>2022-03-05T17:01:14Z</time>
      </trkpt>
      <trkpt lat="45.90332" lon="2.98488">
        <ele>767.463798</ele>
        <time>2022-03-05T17:01:41Z</time>
      </trkpt>
      <trkpt lat="45.90351" lon="2.98437">
        <ele>768.576908</ele>
        <time>2022-03-05T17:02:24Z</time>
      </trkpt>
      <trkpt lat="45.90365" lon="2.98361">
        <ele>770.826841</ele>
        <time>2022-03-05T17:03:25Z</time>
      </trkpt>
      <trkpt lat="45.90367" lon="2.98344">
        <ele>771.311703</ele>
        <time>2022-03-05T17:03:39Z</time>
      </trkpt>
      <trkpt lat="45.9038" lon="2.9829">
        <ele>772.928094</ele>
        <time>2022-03-05T17:04:25Z</time>
      </trkpt>
      <trkpt lat="45.9039" lon="2.98202">
        <ele>775.484304</ele>
        <time>2022-03-05T17:05:38Z</time>
      </trkpt>
      <trkpt lat="45.90409" lon="2.9811">
        <ele>777.832668</ele>
        <time>2022-03-05T17:06:56Z</time>
      </trkpt>
      <trkpt lat="45.90366" lon="2.98072">
        <ele>779.585197</ele>
        <time>2022-03-05T17:07:51Z</time>
      </trkpt>
      <trkpt lat="45.90323" lon="2.98016">
        <ele>781.640701</ele>
        <time>2022-03-05T17:08:56Z</time>
      </trkpt>
      <trkpt lat="45.90257" lon="2.97905">
        <ele>782.845772</ele>
        <time>2022-03-05T17:10:43Z</time>
      </trkpt>
      <trkpt lat="45.9017" lon="2.97789">
        <ele>783.882725</ele>
        <time>2022-03-05T17:12:43Z</time>
      </trkpt>
      <trkpt lat="45.90154" lon="2.97762">
        <ele>783.999479</ele>
        <time>2022-03-05T17:13:07Z</time>
      </trkpt>
      <trkpt lat="45.90138" lon="2.97714">
        <ele>784.176287</ele>
        <time>2022-03-05T17:13:45Z</time>
      </trkpt>
      <trkpt lat="45.90105" lon="2.97601">
        <ele>784.609643</ele>
        <time>2022-03-05T17:15:10Z</time>
      </trkpt>
      <trkpt lat="45.9007" lon="2.97461">
        <ele>787.625646</ele>
        <time>2022-03-05T17:17:05Z</time>
      </trkpt>
      <trkpt lat="45.90071" lon="2.97425">
        <ele>788.363708</ele>
        <time>2022-03-05T17:17:34Z</time>
      </trkpt>
      <trkpt lat="45.90126" lon="2.97376">
        <ele>790.11805</ele>
        <time>2022-03-05T17:18:46Z</time>
      </trkpt>
      <trkpt lat="45.90141" lon="2.97369">
        <ele>790.4591</ele>
        <time>2022-03-05T17:19:05Z</time>
      </trkpt>
      <trkpt lat="45.90212" lon="2.97387">
        <ele>791.952364</ele>
        <time>2022-03-05T17:20:25Z</time>
      </trkpt>
      <trkpt lat="45.90238" lon="2.97383">
        <ele>792.493591</ele>
        <time>2022-03-05T17:20:52Z</time>
      </trkpt>
      <trkpt lat="45.90319" lon="2.97312">
        <ele>793.552267</ele>
        <time>2022-03-05T17:22:28Z</time>
      </trkpt>
      <trkpt lat="45.90369" lon="2.97285">
        <ele>793.535591</ele>
        <time>2022-03-05T17:23:23Z</time>
      </trkpt>
      <trkpt lat="45.90436" lon="2.97202">
        <ele>793.762273</ele>
        <time>2022-03-05T17:24:52Z</time>
      </trkpt>
      <trkpt lat="45.90456" lon="2.97157">
        <ele>795.425457</ele>
        <time>2022-03-05T17:25:32Z</time>
      </trkpt>
      <trkpt lat="45.90457" lon="2.9714">
        <ele>795.9624</ele>
        <time>2022-03-05T17:25:45Z</time>
      </trkpt>
      <trkpt lat="45.90457" lon="2.9713">
        <ele>796.274558</ele>
        <time>2022-03-05T17:25:53Z</time>
      </trkpt>
      <trkpt lat="45.90391" lon="2.96998">
        <ele>801.340104</ele>
        <time>2022-03-05T17:28:10Z</time>
      </trkpt>
      <trkpt lat="45.90374" lon="2.9694">
        <ele>803.072226</ele>
        <time>2022-03-05T17:29:04Z</time>
      </trkpt>
      <trkpt lat="45.90344" lon="2.96891">
        <ele>804.823208</ele>
        <time>2022-03-05T17:29:58Z</time>
      </trkpt>
      <trkpt lat="45.90278" lon="2.96857">
        <ele>807.542884</ele>
        <time>2022-03-05T17:31:17Z</time>
      </trkpt>
      <trkpt lat="45.9026" lon="2.96843">
        <ele>808.319719</ele>
        <time>2022-03-05T17:31:38Z</time>
      </trkpt>
      <trkpt lat="45.90239" lon="2.96819">
        <ele>808.251344</ele>
        <time>2022-03-05T17:32:05Z</time>
      </trkpt>
      <trkpt lat="45.90233" lon="2.96787">
        <ele>807.981952</ele>
        <time>2022-03-05T17:32:28Z</time>
      </trkpt>
      <trkpt lat="45.90254" lon="2.96744">
        <ele>807.551621</ele>
        <time>2022-03-05T17:33:07Z</time>
      </trkpt>
      <trkpt lat="45.90292" lon="2.96704">
        <ele>806.996931</ele>
        <time>2022-03-05T17:33:56Z</time>
      </trkpt>
      <trkpt lat="45.90352" lon="2.96608">
        <ele>806.433074</ele>
        <time>2022-03-05T17:35:29Z</time>
      </trkpt>
      <trkpt lat="45.90357" lon="2.96588">
        <ele>806.451776</ele>
        <time>2022-03-05T17:35:44Z</time>
      </trkpt>
      <trkpt lat="45.90357" lon="2.96567">
        <ele>806.470648</ele>
        <time>2022-03-05T17:35:59Z</time>
      </trkpt>
      <trkpt lat="45.90335" lon="2.96491">
        <ele>806.542419</ele>
        <time>2022-03-05T17:36:56Z</time>
      </trkpt>
      <trkpt lat="45.90283" lon="2.96456">
        <ele>806.62965</ele>
        <time>2022-03-05T17:37:57Z</time>
      </trkpt>
      <trkpt lat="45.90175" lon="2.96417">
        <ele>807.301897</ele>
        <time>2022-03-05T17:39:52Z</time>
      </trkpt>
      <trkpt lat="45.90142" lon="2.96397">
        <ele>807.515216</ele>
        <time>2022-03-05T17:40:28Z</time>
      </trkpt>
      <trkpt lat="45.90086" lon="2.96347">
        <ele>807.767208</ele>
        <time>2022-03-05T17:41:34Z</time>
      </trkpt>
      <trkpt lat="45.9004" lon="2.96347">
        <ele>807.857358</ele>
        <time>2022-03-05T17:42:21Z</time>
      </trkpt>
      <trkpt lat="45.90038" lon="2.96349">
        <ele>807.862509</ele>
        <time>2022-03-05T17:42:24Z</time>
      </trkpt>
      <trkpt lat="45.89992" lon="2.96378">
        <ele>807.959231</ele>
        <time>2022-03-05T17:43:14Z</time>
      </trkpt>
      <trkpt lat="45.89956" lon="2.96397">
        <ele>808.035229</ele>
        <time>2022-03-05T17:43:54Z</time>
      </trkpt>
      <trkpt lat="45.89862" lon="2.96405">
        <ele>809.158071</ele>
        <time>2022-03-05T17:45:32Z</time>
      </trkpt>
      <trkpt lat="45.89788" lon="2.96398">
        <ele>810.09219</ele>
        <time>2022-03-05T17:46:50Z</time>
      </trkpt>
      <trkpt lat="45.89775" lon="2.96327">
        <ele>810.771146</ele>
        <time>2022-03-05T17:47:44Z</time>
      </trkpt>
      <trkpt lat="45.89723" lon="2.96141">
        <ele>812.646976</ele>
        <time>2022-03-05T17:50:10Z</time>
      </trkpt>
      <trkpt lat="45.89721" lon="2.96081">
        <ele>813.357337</ele>
        <time>2022-03-05T17:50:53Z</time>
      </trkpt>
      <trkpt lat="45.89739" lon="2.96004">
        <ele>814.364239</ele>
        <time>2022-03-05T17:51:53Z</time>
      </trkpt>
      <trkpt lat="45.89742" lon="2.95923">
        <ele>815.37234</ele>
        <time>2022-03-05T17:52:54Z</time>
      </trkpt>
      <trkpt lat="45.89739" lon="2.95854">
        <ele>816.590998</ele>
        <time>2022-03-05T17:53:46Z</time>
      </trkpt>
      <trkpt lat="45.89736" lon="2.95814">
        <ele>817.728571</ele>
        <time>2022-03-05T17:54:16Z</time>
      </trkpt>
      <trkpt lat="45.89706" lon="2.9573">
        <ele>820.423767</ele>
        <time>2022-03-05T17:55:29Z</time>
      </trkpt>
      <trkpt lat="45.89705" lon="2.9567">
        <ele>822.123205</ele>
        <time>2022-03-05T17:56:18Z</time>
      </trkpt>
      <trkpt lat="45.89685" lon="2.95581">
        <ele>826.357699</ele>
        <time>2022-03-05T17:57:36Z</time>
      </trkpt>
      <trkpt lat="45.89684" lon="2.95563">
        <ele>827.440022</ele>
        <time>2022-03-05T17:57:53Z</time>
      </trkpt>
      <trkpt lat="45.89605" lon="2.95455">
        <ele>836.714509</ele>
        <time>2022-03-05T18:00:18Z</time>
      </trkpt>
      <trkpt lat="45.89577" lon="2.95462">
        <ele>838.857025</ele>
        <time>2022-03-05T18:00:54Z</time>
      </trkpt>
      <trkpt lat="45.89564" lon="2.95457">
        <ele>839.498407</ele>
        <time>2022-03-05T18:01:15Z</time>
      </trkpt>
      <trkpt lat="45.89569" lon="2.95421">
        <ele>840.618809</ele>
        <time>2022-03-05T18:01:46Z</time>
      </trkpt>
      <trkpt lat="45.89596" lon="2.95341">
        <ele>843.41774</ele>
        <time>2022-03-05T18:03:01Z</time>
      </trkpt>
      <trkpt lat="45.89588" lon="2.95278">
        <ele>845.431171</ele>
        <time>2022-03-05T18:03:51Z</time>
      </trkpt>
      <trkpt lat="45.89577" lon="2.95232">
        <ele>846.482115</ele>
        <time>2022-03-05T18:04:26Z</time>
      </trkpt>
      <trkpt lat="45.89563" lon="2.95231">
        <ele>846.015301</ele>
        <time>2022-03-05T18:04:40Z</time>
      </trkpt>
      <trkpt lat="45.89547" lon="2.95191">
        <ele>844.895659</ele>
        <time>2022-03-05T18:05:15Z</time>
      </trkpt>
      <trkpt lat="45.89487" lon="2.95142">
        <ele>842.527962</ele>
        <time>2022-03-05T18:06:29Z</time>
      </trkpt>
      <trkpt lat="45.89495" lon="2.95106">
        <ele>841.610719</ele>
        <time>2022-03-05T18:06:59Z</time>
      </trkpt>
      <trkpt lat="45.89496" lon="2.95066">
        <ele>840.640591</ele>
        <time>2022-03-05T18:07:29Z</time>
      </trkpt>
      <trkpt lat="45.89471" lon="2.95057">
        <ele>839.722511</ele>
        <time>2022-03-05T18:07:57Z</time>
      </trkpt>
      <trkpt lat="45.89313" lon="2.95045">
        <ele>834.226601</ele>
        <time>2022-03-05T18:10:47Z</time>
      </trkpt>
      <trkpt lat="45.89318" lon="2.94884">
        <ele>830.813897</ele>
        <time>2022-03-05T18:12:45Z</time>
      </trkpt>
      <trkpt lat="45.89271" lon="2.9489">
        <ele>829.389304</ele>
        <time>2022-03-05T18:13:35Z</time>
      </trkpt>
      <trkpt lat="45.8926" lon="2.94859">
        <ele>828.666806</ele>
        <time>2022-03-05T18:14:02Z</time>
      </trkpt>
      <trkpt lat="45.89263" lon="2.94791">
        <ele>827.744676</ele>
        <time>2022-03-05T18:14:52Z</time>
      </trkpt>
      <trkpt lat="45.89252" lon="2.94764">
        <ele>827.323998</ele>
        <time>2022-03-05T18:15:14Z</time>
      </trkpt>
      <trkpt lat="45.89236" lon="2.94753">
        <ele>826.977645</ele>
        <time>2022-03-05T18:15:33Z</time>
      </trkpt>
      <trkpt lat="45.89209" lon="2.94706">
        <ele>826.167928</ele>
        <time>2022-03-05T18:16:16Z</time>
      </trkpt>
      <trkpt lat="45.89192" lon="2.94691">
        <ele>825.76613</ele>
        <time>2022-03-05T18:16:37Z</time>
      </trkpt>
      <trkpt lat="45.89155" lon="2.94672">
        <ele>825.163549</ele>
        <time>2022-03-05T18:17:18Z</time>
      </trkpt>
      <trkpt lat="45.89114" lon="2.94677">
        <ele>824.957467</ele>
        <time>2022-03-05T18:17:59Z</time>
      </trkpt>
      <trkpt lat="45.89102" lon="2.94668">
        <ele>824.889095</ele>
        <time>2022-03-05T18:18:13Z</time>
      </trkpt>
      <trkpt lat="45.89116" lon="2.94642">
        <ele>824.771817</ele>
        <time>2022-03-05T18:18:36Z</time>
      </trkpt>
      <trkpt lat="45.89124" lon="2.94587">
        <ele>824.571707</ele>
        <time>2022-03-05T18:19:16Z</time>
      </trkpt>
      <trkpt lat="45.89102" lon="2.94558">
        <ele>824.421178</ele>
        <time>2022-03-05T18:19:46Z</time>
      </trkpt>
      <trkpt lat="45.89096" lon="2.94545">
        <ele>824.367158</ele>
        <time>2022-03-05T18:19:56Z</time>
      </trkpt>
      <trkpt lat="45.89086" lon="2.94519">
        <ele>824.40487</ele>
        <time>2022-03-05T18:20:17Z</time>
      </trkpt>
      <trkpt lat="45.89053" lon="2.94388">
        <ele>825.531457</ele>
        <time>2022-03-05T18:21:56Z</time>
      </trkpt>
      <trkpt lat="45.89035" lon="2.94336">
        <ele>826.003831</ele>
        <time>2022-03-05T18:22:39Z</time>
      </trkpt>
      <trkpt lat="45.89009" lon="2.94218">
        <ele>827.913443</ele>
        <time>2022-03-05T18:24:13Z</time>
      </trkpt>
      <trkpt lat="45.88959" lon="2.94131">
        <ele>830.181344</ele>
        <time>2022-03-05T18:25:40Z</time>
      </trkpt>
      <trkpt lat="45.88913" lon="2.9408">
        <ele>831.82855</ele>
        <time>2022-03-05T18:26:45Z</time>
      </trkpt>
      <trkpt lat="45.88876" lon="2.94058">
        <ele>832.85296</ele>
        <time>2022-03-05T18:27:30Z</time>
      </trkpt>
      <trkpt lat="45.88724" lon="2.9406">
        <ele>836.277929</ele>
        <time>2022-03-05T18:30:15Z</time>
      </trkpt>
      <trkpt lat="45.88642" lon="2.94071">
        <ele>836.651187</ele>
        <time>2022-03-05T18:31:41Z</time>
      </trkpt>
      <trkpt lat="45.886" lon="2.94064">
        <ele>836.843712</ele>
        <time>2022-03-05T18:32:24Z</time>
      </trkpt>
      <trkpt lat="45.88597" lon="2.94036">
        <ele>836.934006</ele>
        <time>2022-03-05T18:32:44Z</time>
      </trkpt>
      <trkpt lat="45.88574" lon="2.94018">
        <ele>836.727373</ele>
        <time>2022-03-05T18:33:11Z</time>
      </trkpt>
      <trkpt lat="45.88597" lon="2.94036">
        <ele>836.13655</ele>
        <time>2022-03-05T18:33:38Z</time>
      </trkpt>
      <trkpt lat="45.886" lon="2.94064">
        <ele>835.684853</ele>
        <time>2022-03-05T18:33:59Z</time>
      </trkpt>
      <trkpt lat="45.88601" lon="2.94082">
        <ele>835.411359</ele>
        <time>2022-03-05T18:34:11Z</time>
      </trkpt>
      <trkpt lat="45.8862" lon="2.94106">
        <ele>834.827009</ele>
        <time>2022-03-05T18:34:38Z</time>
      </trkpt>
      <trkpt lat="45.88617" lon="2.94125">
        <ele>834.512718</ele>
        <time>2022-03-05T18:34:53Z</time>
      </trkpt>
      <trkpt lat="45.88625" lon="2.94153">
        <ele>834.022326</ele>
        <time>2022-03-05T18:35:15Z</time>
      </trkpt>
      <trkpt lat="45.88623" lon="2.94172">
        <ele>833.729246</ele>
        <time>2022-03-05T18:35:29Z</time>
      </trkpt>
      <trkpt lat="45.88618" lon="2.94201">
        <ele>833.25238</ele>
        <time>2022-03-05T18:35:51Z</time>
      </trkpt>
      <trkpt lat="45.88596" lon="2.94205">
        <ele>832.727272</ele>
        <time>2022-03-05T18:36:15Z</time>
      </trkpt>
      <trkpt lat="45.88588" lon="2.94194">
        <ele>832.423813</ele>
        <time>2022-03-05T18:36:27Z</time>
      </trkpt>
      <trkpt lat="45.88547" lon="2.94231">
        <ele>831.125523</ele>
        <time>2022-03-05T18:37:18Z</time>
      </trkpt>
      <trkpt lat="45.88543" lon="2.94251">
        <ele>830.75013</ele>
        <time>2022-03-05T18:37:33Z</time>
      </trkpt>
      <trkpt lat="45.88521" lon="2.94287">
        <ele>829.836225</ele>
        <time>2022-03-05T18:38:08Z</time>
      </trkpt>
      <trkpt lat="45.88433" lon="2.94365">
        <ele>827.288842</ele>
        <time>2022-03-05T18:39:57Z</time>
      </trkpt>
      <trkpt lat="45.88412" lon="2.94412">
        <ele>826.476442</ele>
        <time>2022-03-05T18:40:38Z</time>
      </trkpt>
      <trkpt lat="45.88389" lon="2.94455">
        <ele>825.687577</ele>
        <time>2022-03-05T18:41:17Z</time>
      </trkpt>
      <trkpt lat="45.88366" lon="2.94486">
        <ele>825.01915</ele>
        <time>2022-03-05T18:41:50Z</time>
      </trkpt>
      <trkpt lat="45.88315" lon="2.9453">
        <ele>824.490622</ele>
        <time>2022-03-05T18:42:52Z</time>
      </trkpt>
      <trkpt lat="45.88285" lon="2.94503">
        <ele>824.764282</ele>
        <time>2022-03-05T18:43:28Z</time>
      </trkpt>
      <trkpt lat="45.88177" lon="2.94503">
        <ele>825.590432</ele>
        <time>2022-03-05T18:45:21Z</time>
      </trkpt>
      <trkpt lat="45.88124" lon="2.94484">
        <ele>827.009565</ele>
        <time>2022-03-05T18:46:22Z</time>
      </trkpt>
      <trkpt lat="45.88122" lon="2.94484">
        <ele>827.07092</ele>
        <time>2022-03-05T18:46:25Z</time>
      </trkpt>
      <trkpt lat="45.88071" lon="2.94476">
        <ele>828.626041</ele>
        <time>2022-03-05T18:47:22Z</time>
      </trkpt>
      <trkpt lat="45.88058" lon="2.9443">
        <ele>829.681714</ele>
        <time>2022-03-05T18:48:01Z</time>
      </trkpt>
      <trkpt lat="45.87993" lon="2.9434">
        <ele>831.811224</ele>
        <time>2022-03-05T18:49:40Z</time>
      </trkpt>
      <trkpt lat="45.8792" lon="2.94274">
        <ele>833.150647</ele>
        <time>2022-03-05T18:51:11Z</time>
      </trkpt>
      <trkpt lat="45.87931" lon="2.94226">
        <ele>833.696611</ele>
        <time>2022-03-05T18:51:46Z</time>
      </trkpt>
      <trkpt lat="45.87908" lon="2.9415">
        <ele>834.787276</ele>
        <time>2022-03-05T18:52:45Z</time>
      </trkpt>
      <trkpt lat="45.87907" lon="2.94132">
        <ele>835.043817</ele>
        <time>2022-03-05T18:52:58Z</time>
      </trkpt>
      <trkpt lat="45.87911" lon="2.94113">
        <ele>835.316053</ele>
        <time>2022-03-05T18:53:12Z</time>
      </trkpt>
      <trkpt lat="45.87908" lon="2.94091">
        <ele>835.631637</ele>
        <time>2022-03-05T18:53:29Z</time>
      </trkpt>
      <trkpt lat="45.87863" lon="2.94013">
        <ele>837.072286</ele>
        <time>2022-03-05T18:54:46Z</time>
      </trkpt>
      <trkpt lat="45.87825" lon="2.94">
        <ele>838.115783</ele>
        <time>2022-03-05T18:55:30Z</time>
      </trkpt>
      <trkpt lat="45.87803" lon="2.93991">
        <ele>839.036181</ele>
        <time>2022-03-05T18:55:55Z</time>
      </trkpt>
      <trkpt lat="45.8778" lon="2.93982">
        <ele>840.020464</ele>
        <time>2022-03-05T18:56:23Z</time>
      </trkpt>
      <trkpt lat="45.87734" lon="2.93946">
        <ele>842.162034</ele>
        <time>2022-03-05T18:57:23Z</time>
      </trkpt>
      <trkpt lat="45.87711" lon="2.93936">
        <ele>843.174853</ele>
        <time>2022-03-05T18:57:52Z</time>
      </trkpt>
      <trkpt lat="45.87635" lon="2.93922">
        <ele>845.917609</ele>
        <time>2022-03-05T18:59:20Z</time>
      </trkpt>
      <trkpt lat="45.87578" lon="2.93896">
        <ele>847.669945</ele>
        <time>2022-03-05T19:00:26Z</time>
      </trkpt>
      <trkpt lat="45.87538" lon="2.93968">
        <ele>849.533434</ele>
        <time>2022-03-05T19:01:36Z</time>
      </trkpt>
      <trkpt lat="45.87531" lon="2.93995">
        <ele>850.107041</ele>
        <time>2022-03-05T19:01:57Z</time>
      </trkpt>
      <trkpt lat="45.8754" lon="2.94091">
        <ele>851.857861</ele>
        <time>2022-03-05T19:03:10Z</time>
      </trkpt>
      <trkpt lat="45.87555" lon="2.94137">
        <ele>852.757757</ele>
        <time>2022-03-05T19:03:47Z</time>
      </trkpt>
      <trkpt lat="45.87551" lon="2.94191">
        <ele>853.719495</ele>
        <time>2022-03-05T19:04:28Z</time>
      </trkpt>
      <trkpt lat="45.87513" lon="2.94346">
        <ele>858.828088</ele>
        <time>2022-03-05T19:06:38Z</time>
      </trkpt>
      <trkpt lat="45.87475" lon="2.94425">
        <ele>862.528808</ele>
        <time>2022-03-05T19:07:59Z</time>
      </trkpt>
      <trkpt lat="45.87395" lon="2.94552">
        <ele>870.233307</ele>
        <time>2022-03-05T19:10:29Z</time>
      </trkpt>
      <trkpt lat="45.87333" lon="2.94685">
        <ele>877.701657</ele>
        <time>2022-03-05T19:12:47Z</time>
      </trkpt>
      <trkpt lat="45.873" lon="2.94855">
        <ele>883.588278</ele>
        <time>2022-03-05T19:15:09Z</time>
      </trkpt>
      <trkpt lat="45.87276" lon="2.94892">
        <ele>885.272414</ele>
        <time>2022-03-05T19:15:50Z</time>
      </trkpt>
      <trkpt lat="45.8725" lon="2.94952">
        <ele>887.63389</ele>
        <time>2022-03-05T19:16:45Z</time>
      </trkpt>
      <trkpt lat="45.87231" lon="2.94978">
        <ele>888.918736</ele>
        <time>2022-03-05T19:17:16Z</time>
      </trkpt>
      <trkpt lat="45.87173" lon="2.95054">
        <ele>892.739465</ele>
        <time>2022-03-05T19:18:49Z</time>
      </trkpt>
      <trkpt lat="45.87123" lon="2.95091">
        <ele>895.414629</ele>
        <time>2022-03-05T19:19:56Z</time>
      </trkpt>
      <trkpt lat="45.87074" lon="2.95116">
        <ele>897.714033</ele>
        <time>2022-03-05T19:20:56Z</time>
      </trkpt>
      <trkpt lat="45.87011" lon="2.95107">
        <ele>900.568804</ele>
        <time>2022-03-05T19:22:09Z</time>
      </trkpt>
      <trkpt lat="45.86922" lon="2.95166">
        <ele>904.851733</ele>
        <time>2022-03-05T19:24:01Z</time>
      </trkpt>
      <trkpt lat="45.86889" lon="2.95173">
        <ele>906.262438</ele>
        <time>2022-03-05T19:24:39Z</time>
      </trkpt>
      <trkpt lat="45.86806" lon="2.95301">
        <ele>910.730096</ele>
        <time>2022-03-05T19:27:00Z</time>
      </trkpt>
      <trkpt lat="45.8679" lon="2.95387">
        <ele>911.614924</ele>
        <time>2022-03-05T19:28:10Z</time>
      </trkpt>
    </trkseg>
  </trk>
</gpx>